Terminal Aerodrome Forecast
Issued by NWS

Home | Current Version | Previous Version | Text Only | Print | Product List | Glossary On
Versions: 1 2 3 4 5 6 7 8 9 10 11 12 13
000
FTAK31 PAJN 050522
TAFASI
TAF
PASI 050522Z 0506/0606 14011KT 6SM -RA BR BKN025 OVC035
     FM051400 15012G18KT P6SM -RA SCT020 OVC030
     FM052000 15012KT P6SM -SHRA SCT020 OVC040
     FM060300 14015G22KT 6SM -RA BR BKN025 OVC035=

USA.gov is the U.S. government's official web portal to all federal, state and local government web resources and services.